createdAt,value
2022-10-30T00:01:09.771Z,72.60
2022-10-30T00:06:11.437Z,89.30
2022-10-30T00:08:38.631Z,85.28
2022-10-30T00:11:11.051Z,88.05
2022-10-30T00:13:42.403Z,79.75
2022-10-30T00:16:09.646Z,81.18
2022-10-30T00:18:38.622Z,75.25
2022-10-30T00:21:13.395Z,71.93
2022-10-30T00:23:53.440Z,67.03
2022-10-30T00:26:25.612Z,76.32
2022-10-30T00:28:57.346Z,66.85
2022-10-30T00:31:27.464Z,68.13
2022-10-30T00:33:55.747Z,74.57
2022-10-30T00:36:23.847Z,66.93
2022-10-30T00:38:55.928Z,75.53
2022-10-30T00:41:25.516Z,62.55
2022-10-30T00:43:52.859Z,57.67
2022-10-30T00:46:38.746Z,61.33
2022-10-30T00:49:16.878Z,59.22
2022-10-30T00:51:52.544Z,60.55
2022-10-30T00:54:23.512Z,58.85
2022-10-30T00:56:54.317Z,56.78
2022-10-30T00:59:29.188Z,57.55
2022-10-30T01:01:57.792Z,52.38
2022-10-30T01:04:30.238Z,57.17
2022-10-30T01:07:06.704Z,50.67
2022-10-30T01:09:34.249Z,55.95
2022-10-30T01:12:01.593Z,58.00
2022-10-30T01:14:33.721Z,50.35
2022-10-30T01:17:16.174Z,49.80
2022-10-30T01:20:10.782Z,51.30
2022-10-30T01:22:44.113Z,51.53
2022-10-30T01:25:27.677Z,50.30
2022-10-30T01:28:26.280Z,49.10
2022-10-30T01:31:13.532Z,52.35
2022-10-30T01:33:53.906Z,49.78
2022-10-30T01:36:51.678Z,51.88
2022-10-30T01:39:26.368Z,54.05
2022-10-30T01:41:56.353Z,52.10
2022-10-30T01:44:30.784Z,44.95
2022-10-30T01:47:22.054Z,54.72
2022-10-30T01:50:00.423Z,51.85
2022-10-30T01:52:33.483Z,45.60
2022-10-30T01:55:29.786Z,45.47
2022-10-30T01:58:06.497Z,52.00
2022-10-30T02:00:43.631Z,49.72
2022-10-30T02:03:14.450Z,44.67
2022-10-30T02:05:49.208Z,52.03
2022-10-30T02:08:22.296Z,53.72
2022-10-30T02:10:53.594Z,50.63
2022-10-30T02:13:33.577Z,48.38
2022-10-30T02:16:00.955Z,48.72
2022-10-30T02:18:30.504Z,47.55
2022-10-30T02:20:58.136Z,50.40
2022-10-30T02:23:25.393Z,52.45
2022-10-30T02:25:55.298Z,44.38
2022-10-30T02:28:22.828Z,49.88
2022-10-30T02:30:50.062Z,56.90
2022-10-30T02:33:19.683Z,46.40
2022-10-30T02:35:47.559Z,52.90
2022-10-30T02:38:15.526Z,47.60
2022-10-30T02:40:42.732Z,56.92
2022-10-30T02:43:14.800Z,46.65
2022-10-30T02:45:44.256Z,46.00
2022-10-30T02:48:12.525Z,43.13
2022-10-30T02:50:42.461Z,54.88
2022-10-30T02:53:09.668Z,53.78
2022-10-30T02:55:36.773Z,43.35
2022-10-30T02:58:04.181Z,48.38
2022-10-30T03:00:31.831Z,47.67
2022-10-30T03:03:01.308Z,48.03
2022-10-30T03:05:32.948Z,45.42
2022-10-30T03:08:00.524Z,40.45
2022-10-30T03:10:28.052Z,50.10
2022-10-30T03:12:55.391Z,45.65
2022-10-30T03:15:22.648Z,44.80
2022-10-30T03:17:52.425Z,44.95
2022-10-30T03:20:20.258Z,49.17
2022-10-30T03:22:47.702Z,48.95
2022-10-30T03:25:15.021Z,48.97
2022-10-30T03:27:42.195Z,46.63
2022-10-30T03:30:10.308Z,50.33
2022-10-30T03:32:37.617Z,41.85
2022-10-30T03:35:05.154Z,45.88
2022-10-30T03:37:35.521Z,41.33
2022-10-30T03:40:05.518Z,43.78
2022-10-30T03:42:40.933Z,41.42
2022-10-30T03:45:12.636Z,44.63
2022-10-30T03:47:45.298Z,45.10
2022-10-30T03:50:12.581Z,47.33
2022-10-30T03:52:44.647Z,42.42
2022-10-30T03:55:15.379Z,43.35
2022-10-30T03:57:45.160Z,45.30
2022-10-30T04:00:17.017Z,47.63
2022-10-30T04:02:56.113Z,43.13
2022-10-30T04:05:25.877Z,44.83
2022-10-30T04:08:01.233Z,41.38
2022-10-30T04:10:36.817Z,43.92
2022-10-30T04:13:11.211Z,58.15
2022-10-30T04:15:43.973Z,51.45
2022-10-30T04:18:16.325Z,39.10
2022-10-30T04:20:48.378Z,48.30
2022-10-30T04:23:18.649Z,47.17
2022-10-30T04:25:46.114Z,41.50
2022-10-30T04:28:13.878Z,56.03
2022-10-30T04:30:43.149Z,43.28
2022-10-30T04:33:12.592Z,51.80
2022-10-30T04:35:42.534Z,49.15
2022-10-30T04:38:19.055Z,44.05
2022-10-30T04:40:51.444Z,49.05
2022-10-30T04:43:19.477Z,46.58
2022-10-30T04:45:50.525Z,43.80
2022-10-30T04:48:19.057Z,44.25
2022-10-30T04:50:48.708Z,43.38
2022-10-30T04:53:23.701Z,41.58
2022-10-30T04:55:57.176Z,38.70
2022-10-30T04:58:24.408Z,37.10
2022-10-30T05:01:03.463Z,38.25
2022-10-30T05:03:36.318Z,47.13
2022-10-30T05:06:21.957Z,35.35
2022-10-30T05:08:50.120Z,39.60
2022-10-30T05:11:32.451Z,43.92
2022-10-30T05:13:59.925Z,43.38
2022-10-30T05:16:27.263Z,42.20
2022-10-30T05:18:55.638Z,51.97
2022-10-30T05:21:22.963Z,43.15
2022-10-30T05:23:54.172Z,48.40
2022-10-30T05:26:23.912Z,45.15
2022-10-30T05:28:57.065Z,50.38
2022-10-30T05:31:24.361Z,44.08
2022-10-30T05:36:46.761Z,38.35
2022-10-30T05:39:15.150Z,49.13
2022-10-30T05:41:45.534Z,39.80
2022-10-30T05:44:12.853Z,44.50
2022-10-30T05:46:42.892Z,39.67
2022-10-30T05:49:24.528Z,41.20
2022-10-30T05:51:54.368Z,43.30
2022-10-30T05:54:24.134Z,42.35
2022-10-30T05:57:00.512Z,44.28
2022-10-30T05:59:30.736Z,47.45
2022-10-30T06:02:00.345Z,43.85
2022-10-30T06:04:30.180Z,46.33
2022-10-30T06:07:01.522Z,37.55
2022-10-30T06:09:29.056Z,57.45
2022-10-30T06:12:03.723Z,40.13
2022-10-30T06:14:48.686Z,44.70
2022-10-30T06:17:16.206Z,43.95
2022-10-30T06:20:01.128Z,40.05
2022-10-30T06:23:02.152Z,46.10
2022-10-30T06:25:48.354Z,43.00
2022-10-30T06:28:34.470Z,44.10
2022-10-30T06:31:02.129Z,41.42
2022-10-30T06:33:31.124Z,45.72
2022-10-30T06:35:59.926Z,45.78
2022-10-30T06:38:27.362Z,43.47
2022-10-30T06:40:55.720Z,45.38
2022-10-30T06:43:34.699Z,46.90
2022-10-30T06:48:46.065Z,45.28
2022-10-30T06:51:15.452Z,45.83
2022-10-30T06:53:43.379Z,43.60
2022-10-30T06:56:43.058Z,46.15
2022-10-30T06:59:23.973Z,41.53
2022-10-30T07:02:00.215Z,42.55
2022-10-30T07:04:38.749Z,50.40
2022-10-30T07:07:08.904Z,47.90
2022-10-30T07:09:36.114Z,49.45
2022-10-30T07:12:06.976Z,48.63
2022-10-30T07:14:40.723Z,49.47
2022-10-30T07:17:15.922Z,46.47
2022-10-30T07:19:49.354Z,52.75
2022-10-30T07:22:17.150Z,47.95
2022-10-30T07:24:48.806Z,44.63
2022-10-30T07:27:30.213Z,42.95
2022-10-30T07:30:07.534Z,55.20
2022-10-30T07:32:57.447Z,46.38
2022-10-30T07:35:46.495Z,44.25
2022-10-30T07:38:28.213Z,44.42
2022-10-30T07:41:03.149Z,52.83
2022-10-30T07:43:48.433Z,43.65
2022-10-30T07:46:42.156Z,49.08
2022-10-30T07:52:01.613Z,50.85
2022-10-30T07:54:28.851Z,47.28
2022-10-30T07:56:59.242Z,49.53
2022-10-30T07:59:35.300Z,54.05
2022-10-30T08:02:21.481Z,43.50
2022-10-30T08:05:10.032Z,45.17
2022-10-30T08:07:57.196Z,47.90
2022-10-30T08:10:24.507Z,37.90
2022-10-30T08:12:51.987Z,34.03
2022-10-30T08:15:19.472Z,33.45
2022-10-30T08:17:50.599Z,44.30
2022-10-30T08:20:20.247Z,34.63
2022-10-30T08:22:53.943Z,41.15
2022-10-30T08:25:27.717Z,36.35
2022-10-30T08:27:57.805Z,37.70
2022-10-30T08:30:34.348Z,36.63
2022-10-30T08:33:04.616Z,40.92
2022-10-30T08:35:59.909Z,36.40
2022-10-30T08:38:28.458Z,37.92
2022-10-30T08:41:13.856Z,40.92
2022-10-30T08:43:45.613Z,36.97
2022-10-30T08:46:12.845Z,41.63
2022-10-30T08:48:41.397Z,40.15
2022-10-30T08:51:08.588Z,42.95
2022-10-30T08:53:44.087Z,48.85
2022-10-30T08:56:14.354Z,36.35
2022-10-30T08:59:03.093Z,40.50
2022-10-30T09:01:32.703Z,45.33
2022-10-30T09:04:21.048Z,46.85
2022-10-30T09:07:23.257Z,40.20
2022-10-30T09:10:19.674Z,45.45
2022-10-30T09:12:57.146Z,45.20
2022-10-30T09:15:28.381Z,46.25
2022-10-30T09:18:01.771Z,43.63
2022-10-30T09:20:30.782Z,48.90
2022-10-30T09:22:59.172Z,39.13
2022-10-30T09:25:29.762Z,46.25
2022-10-30T09:28:09.718Z,44.08
2022-10-30T09:31:01.627Z,40.58
2022-10-30T09:33:31.895Z,43.17
2022-10-30T09:36:22.214Z,45.80
2022-10-30T09:38:49.880Z,46.10
2022-10-30T09:41:51.216Z,40.60
2022-10-30T09:44:48.748Z,44.50
2022-10-30T09:48:01.657Z,38.40
2022-10-30T09:50:43.489Z,39.47
2022-10-30T09:53:30.413Z,40.80
2022-10-30T09:56:09.000Z,48.90
2022-10-30T09:58:50.315Z,39.05
2022-10-30T10:01:26.439Z,42.70
2022-10-30T10:04:15.909Z,42.38
2022-10-30T10:06:46.960Z,44.17
2022-10-30T10:09:31.670Z,38.10
2022-10-30T10:12:35.636Z,43.83
2022-10-30T10:15:15.842Z,42.15
2022-10-30T10:17:46.312Z,41.75
2022-10-30T10:20:36.776Z,39.03
2022-10-30T10:23:43.484Z,37.42
2022-10-30T10:26:29.587Z,45.45
2022-10-30T10:28:59.524Z,51.72
2022-10-30T10:31:35.452Z,45.97
2022-10-30T10:34:21.267Z,47.28
2022-10-30T10:37:17.582Z,46.55
2022-10-30T10:40:13.853Z,45.00
2022-10-30T10:43:01.454Z,41.67
2022-10-30T10:45:54.737Z,39.72
2022-10-30T10:48:48.688Z,38.92
2022-10-30T10:51:31.040Z,39.17
2022-10-30T10:54:21.010Z,34.50
2022-10-30T10:56:51.255Z,39.53
2022-10-30T10:59:18.651Z,30.85
2022-10-30T11:01:58.790Z,34.53
2022-10-30T11:04:35.678Z,34.20
2022-10-30T11:07:24.853Z,41.10
2022-10-30T11:09:54.426Z,34.58
2022-10-30T11:12:33.636Z,38.40
2022-10-30T11:15:25.124Z,35.22
2022-10-30T11:18:00.385Z,31.25
2022-10-30T11:20:55.937Z,33.50
2022-10-30T11:23:43.020Z,40.90
2022-10-30T11:26:22.429Z,32.60
2022-10-30T11:29:01.859Z,36.42
2022-10-30T11:31:35.060Z,32.50
2022-10-30T11:34:19.766Z,37.72
2022-10-30T11:36:52.498Z,34.25
2022-10-30T11:40:00.912Z,30.50
2022-10-30T11:42:28.446Z,36.88
2022-10-30T11:44:57.984Z,43.55
2022-10-30T11:50:20.236Z,37.65
2022-10-30T11:52:51.086Z,30.83
2022-10-30T11:55:28.042Z,35.10
2022-10-30T11:58:01.870Z,32.97
2022-10-30T12:00:34.346Z,45.97
2022-10-30T12:03:02.516Z,32.22
2022-10-30T12:05:38.283Z,27.83
2022-10-30T12:08:08.743Z,30.95
2022-10-30T12:10:47.820Z,30.33
2022-10-30T12:13:20.324Z,43.80
2022-10-30T12:16:17.951Z,25.85
2022-10-30T12:19:04.781Z,33.63
2022-10-30T12:21:38.160Z,27.25
2022-10-30T12:24:13.009Z,31.20
2022-10-30T12:26:48.147Z,28.70
2022-10-30T12:29:22.038Z,31.48
2022-10-30T12:31:56.931Z,26.15
2022-10-30T12:34:30.999Z,36.72
2022-10-30T12:37:23.500Z,29.40
2022-10-30T12:39:51.012Z,41.30
2022-10-30T12:42:23.211Z,27.67
2022-10-30T12:45:21.481Z,28.00
2022-10-30T12:48:11.245Z,29.85
2022-10-30T12:51:06.936Z,30.63
2022-10-30T12:53:40.094Z,34.78
2022-10-30T12:56:18.626Z,28.05
2022-10-30T12:59:12.378Z,39.35
2022-10-30T13:01:52.880Z,32.08
2022-10-30T13:04:24.351Z,33.10
2022-10-30T13:07:14.584Z,31.15
2022-10-30T13:10:09.618Z,24.42
2022-10-30T13:12:44.672Z,30.40
2022-10-30T13:15:25.927Z,28.48
2022-10-30T13:18:13.208Z,30.98
2022-10-30T13:20:40.782Z,28.55
2022-10-30T13:23:15.615Z,31.42
2022-10-30T13:26:13.160Z,35.08
2022-10-30T13:29:03.648Z,36.28
2022-10-30T13:31:44.245Z,48.47
2022-10-30T13:34:30.154Z,30.52
2022-10-30T13:37:08.805Z,34.92
2022-10-30T13:40:04.653Z,35.03
2022-10-30T13:42:51.752Z,34.88
2022-10-30T13:45:58.237Z,31.63
2022-10-30T13:48:39.816Z,32.15
2022-10-30T13:51:45.772Z,35.67
2022-10-30T13:54:22.548Z,39.67
2022-10-30T13:56:53.725Z,32.55
2022-10-30T13:59:31.214Z,27.63
2022-10-30T14:02:25.138Z,36.15
2022-10-30T14:05:13.954Z,26.88
2022-10-30T14:08:05.172Z,36.53
2022-10-30T14:10:47.681Z,31.83
2022-10-30T14:16:06.027Z,32.50
2022-10-30T14:19:00.656Z,37.70
2022-10-30T14:21:58.929Z,35.05
2022-10-30T14:26:58.002Z,37.08
2022-10-30T14:29:37.244Z,38.10
2022-10-30T14:32:17.603Z,29.08
2022-10-30T14:34:51.204Z,32.38
2022-10-30T14:37:38.759Z,36.75
2022-10-30T14:40:34.707Z,33.05
2022-10-30T14:43:20.351Z,39.60
2022-10-30T14:46:01.548Z,41.72
2022-10-30T14:48:45.298Z,43.33
2022-10-30T14:51:23.101Z,41.92
2022-10-30T14:54:17.997Z,31.67
2022-10-30T14:56:51.397Z,40.50
2022-10-30T14:59:33.390Z,40.08
2022-10-30T15:02:03.520Z,41.63
2022-10-30T15:04:58.313Z,45.40
2022-10-30T15:07:37.862Z,43.47
2022-10-30T15:10:16.040Z,38.80
2022-10-30T15:12:51.741Z,41.20
2022-10-30T15:15:21.698Z,41.70
2022-10-30T15:17:58.631Z,40.47
2022-10-30T15:20:29.572Z,42.05
2022-10-30T15:23:19.082Z,55.35
2022-10-30T15:25:49.301Z,58.08
2022-10-30T15:31:07.704Z,70.07
2022-10-30T15:33:38.410Z,61.22
2022-10-30T15:36:06.160Z,50.40
2022-10-30T15:38:33.469Z,44.45
2022-10-30T15:41:03.471Z,67.63
2022-10-30T15:43:37.495Z,54.40
2022-10-30T15:46:10.195Z,47.47
2022-10-30T15:48:45.051Z,51.53
2022-10-30T15:51:24.405Z,54.22
2022-10-30T15:53:57.763Z,60.03
2022-10-30T15:57:06.786Z,64.00
2022-10-30T15:59:35.249Z,65.38
2022-10-30T16:02:21.380Z,60.38
2022-10-30T16:04:49.394Z,60.55
2022-10-30T16:07:23.313Z,59.83
2022-10-30T16:09:58.150Z,72.65
2022-10-30T16:12:33.305Z,58.47
2022-10-30T16:15:07.473Z,48.22
2022-10-30T16:17:35.260Z,56.35
2022-10-30T16:20:09.443Z,57.75
2022-10-30T16:22:39.480Z,58.33
2022-10-30T16:25:12.895Z,63.88
2022-10-30T16:27:44.540Z,53.85
2022-10-30T16:30:16.211Z,52.25
2022-10-30T16:32:55.420Z,51.88
2022-10-30T16:35:24.804Z,59.22
2022-10-30T16:37:52.351Z,148.50
2022-10-30T16:40:27.255Z,115.97
2022-10-30T16:42:59.997Z,53.58
2022-10-30T16:45:34.051Z,46.95
2022-10-30T16:50:52.360Z,43.25
2022-10-30T16:53:24.037Z,47.22
2022-10-30T16:55:52.712Z,52.15
2022-10-30T16:58:24.212Z,45.97
2022-10-30T17:00:56.945Z,60.23
2022-10-30T17:03:27.046Z,54.92
2022-10-30T17:06:05.383Z,51.97
2022-10-30T17:08:40.819Z,60.47
2022-10-30T17:11:17.542Z,62.97
2022-10-30T17:13:59.000Z,57.38
2022-10-30T17:16:37.428Z,62.10
2022-10-30T17:19:30.457Z,69.70
2022-10-30T17:22:00.699Z,59.58
2022-10-30T17:24:41.590Z,61.15
2022-10-30T17:27:28.894Z,48.20
2022-10-30T17:32:44.060Z,55.17
2022-10-30T17:35:18.101Z,66.50
2022-10-30T17:37:47.388Z,56.80
2022-10-30T17:40:21.985Z,52.80
2022-10-30T17:42:52.214Z,57.20
2022-10-30T17:45:19.660Z,66.65
2022-10-30T17:47:49.504Z,172.60
2022-10-30T17:50:16.967Z,54.22
2022-10-30T17:52:44.275Z,71.28
2022-10-30T17:55:28.705Z,51.22
2022-10-30T17:57:55.878Z,53.58
2022-10-30T18:00:27.962Z,60.75
2022-10-30T18:02:57.938Z,61.25
2022-10-30T18:05:30.063Z,66.97
2022-10-30T18:07:59.579Z,52.40
2022-10-30T18:10:27.178Z,54.95
2022-10-30T18:12:54.262Z,62.40
2022-10-30T18:15:31.024Z,45.58
2022-10-30T18:17:58.717Z,66.47
2022-10-30T18:20:29.537Z,65.82
2022-10-30T18:23:03.268Z,51.15
2022-10-30T18:25:34.917Z,57.67
2022-10-30T18:28:02.760Z,52.08
2022-10-30T18:30:30.436Z,56.45
2022-10-30T18:33:00.447Z,55.42
2022-10-30T18:35:37.363Z,45.50
2022-10-30T18:38:08.255Z,48.33
2022-10-30T18:40:38.332Z,51.50
2022-10-30T18:43:07.883Z,56.95
2022-10-30T18:45:40.881Z,59.38
2022-10-30T18:48:08.877Z,57.50
2022-10-30T18:50:43.024Z,57.17
2022-10-30T18:53:14.353Z,57.72
2022-10-30T18:55:42.653Z,64.15
2022-10-30T18:58:14.652Z,75.57
2022-10-30T19:03:30.117Z,61.35
2022-10-30T19:06:00.639Z,65.57
2022-10-30T19:08:30.649Z,50.08
2022-10-30T19:11:00.962Z,58.58
2022-10-30T19:13:28.748Z,50.70
2022-10-30T19:16:00.503Z,53.05
2022-10-30T19:18:30.718Z,49.60
2022-10-30T19:21:06.545Z,52.47
2022-10-30T19:23:39.117Z,57.58
2022-10-30T19:26:09.363Z,55.70
2022-10-30T19:28:41.563Z,60.05
2022-10-30T19:31:13.840Z,54.53
2022-10-30T19:33:42.039Z,52.08
2022-10-30T19:36:29.858Z,53.25
2022-10-30T19:39:08.886Z,56.03
2022-10-30T19:41:41.145Z,61.45
2022-10-30T19:44:08.722Z,61.70
2022-10-30T19:46:38.765Z,60.15
2022-10-30T19:49:18.035Z,64.07
2022-10-30T19:51:51.394Z,57.90
2022-10-30T19:54:20.699Z,54.92
2022-10-30T19:56:52.501Z,53.53
2022-10-30T19:59:24.431Z,66.57
2022-10-30T20:01:51.973Z,52.63
2022-10-30T20:04:22.661Z,54.75
2022-10-30T20:06:52.856Z,59.13
2022-10-30T20:09:21.740Z,58.00
2022-10-30T20:11:51.530Z,66.30
2022-10-30T20:14:19.016Z,62.35
2022-10-30T20:16:48.741Z,73.63
2022-10-30T20:19:29.024Z,78.00
2022-10-30T20:21:59.379Z,87.65
2022-10-30T20:24:31.359Z,78.78
2022-10-30T20:27:01.572Z,60.97
2022-10-30T20:29:31.523Z,71.82
2022-10-30T20:31:58.928Z,51.28
2022-10-30T20:34:26.429Z,49.15
2022-10-30T20:36:55.771Z,51.22
2022-10-30T20:39:26.349Z,54.67
2022-10-30T20:42:00.160Z,56.92
2022-10-30T20:44:30.001Z,56.88
2022-10-30T20:46:57.111Z,70.50
2022-10-30T20:49:26.701Z,56.72
2022-10-30T20:51:56.331Z,69.72
2022-10-30T20:54:26.233Z,64.22
2022-10-30T20:56:55.763Z,79.10
2022-10-30T20:59:23.063Z,66.13
2022-10-30T21:01:53.628Z,61.22
2022-10-30T21:04:23.787Z,66.45
2022-10-30T21:06:50.945Z,58.58
2022-10-30T21:09:20.187Z,65.28
2022-10-30T21:11:49.858Z,56.80
2022-10-30T21:14:17.187Z,57.03
2022-10-30T21:16:46.862Z,69.82
2022-10-30T21:19:18.637Z,67.00
2022-10-30T21:21:46.244Z,72.90
2022-10-30T21:24:15.497Z,65.95
2022-10-30T21:26:43.075Z,74.28
2022-10-30T21:29:15.434Z,75.25
2022-10-30T21:31:43.943Z,66.40
2022-10-30T21:34:14.666Z,67.63
2022-10-30T21:36:44.307Z,82.18
2022-10-30T21:39:11.556Z,65.20
2022-10-30T21:41:44.448Z,59.22
2022-10-30T21:44:17.935Z,59.47
2022-10-30T21:46:45.689Z,64.70
2022-10-30T21:49:17.879Z,71.82
2022-10-30T21:51:49.747Z,60.08
2022-10-30T21:54:18.306Z,68.60
2022-10-30T21:56:46.048Z,56.65
2022-10-30T21:59:13.711Z,62.20
2022-10-30T22:01:42.128Z,293.83
2022-10-30T22:04:11.168Z,102.40
2022-10-30T22:06:43.749Z,81.45
2022-10-30T22:09:13.737Z,55.70
2022-10-30T22:11:45.673Z,49.13
2022-10-30T22:14:19.657Z,59.60
2022-10-30T22:16:48.565Z,64.97
2022-10-30T22:19:18.626Z,76.63
2022-10-30T22:21:45.741Z,64.40
2022-10-30T22:24:16.028Z,64.53
2022-10-30T22:26:43.410Z,57.15
2022-10-30T22:29:11.774Z,58.08
2022-10-30T22:31:41.456Z,60.53
2022-10-30T22:34:08.739Z,60.45
2022-10-30T22:36:35.833Z,63.85
2022-10-30T22:39:10.024Z,64.13
2022-10-30T22:41:38.334Z,56.47
2022-10-30T22:44:12.554Z,61.28
2022-10-30T22:46:40.514Z,74.38
2022-10-30T22:49:10.294Z,108.88
2022-10-30T22:51:39.399Z,171.18
2022-10-30T22:54:09.979Z,109.50
2022-10-30T22:56:37.630Z,161.57
2022-10-30T22:59:12.299Z,312.83
2022-10-30T23:01:42.560Z,304.23
2022-10-30T23:04:11.838Z,146.43
2022-10-30T23:06:39.431Z,95.25
2022-10-30T23:09:11.510Z,134.98
2022-10-30T23:11:38.618Z,168.18
2022-10-30T23:14:06.060Z,120.03
2022-10-30T23:16:33.680Z,89.03
2022-10-30T23:19:01.529Z,73.93
2022-10-30T23:21:30.909Z,59.97
2022-10-30T23:24:06.215Z,52.33
2022-10-30T23:26:36.210Z,54.28
2022-10-30T23:29:04.512Z,56.15
2022-10-30T23:31:35.353Z,59.65
2022-10-30T23:34:08.960Z,62.22
2022-10-30T23:36:38.878Z,59.85
2022-10-30T23:39:11.112Z,52.60
2022-10-30T23:41:38.592Z,53.47
2022-10-30T23:44:12.197Z,50.25
2022-10-30T23:46:39.665Z,51.13
2022-10-30T23:49:07.469Z,51.40
2022-10-30T23:51:36.940Z,51.60
2022-10-30T23:54:07.111Z,59.13
2022-10-30T23:56:36.367Z,55.95
2022-10-30T23:59:06.672Z,48.17
